Time;durP1;ratioP1;P1;durP2;ratioP2;P2;SDS_P1;SDS_P2;PMS_P1;PMS_P2;Temp;Humidity;BMP_temperature;BMP_pressure;BME280_temperature;BME280_humidity;BME280_pressure;Samples;Min_cycle;Max_cycle;Signal;HPM_P1;HPM_P2
2024/03/14 00:00:03;;;;;;;5.37;4.30;;;;;;;;;;5075920;28;20194;-65
2024/03/14 00:02:30;;;;;;;4.07;3.77;;;;;;;;;;5076425;28;20208;-65
2024/03/14 00:04:58;;;;;;;3.50;3.37;;;;;;;;;;5076010;28;20198;-65
2024/03/14 00:07:26;;;;;;;3.47;3.27;;;;;;;;;;5074137;28;20232;-65
2024/03/14 00:09:53;;;;;;;3.17;3.07;;;;;;;;;;5075054;28;20234;-66
2024/03/14 00:12:20;;;;;;;3.00;2.80;;;;;;;;;;5075866;28;20193;-65
2024/03/14 00:14:51;;;;;;;3.47;3.20;;;;;;;;;;5073674;28;20212;-65
2024/03/14 00:17:19;;;;;;;2.87;2.77;;;;;;;;;;5075515;28;20298;-66
2024/03/14 00:19:46;;;;;;;3.30;3.10;;;;;;;;;;5072841;28;20294;-65
2024/03/14 00:22:13;;;;;;;3.40;3.13;;;;;;;;;;5065667;28;20748;-65
2024/03/14 00:24:42;;;;;;;2.70;2.60;;;;;;;;;;5067540;28;20573;-65
2024/03/14 00:27:09;;;;;;;3.23;3.03;;;;;;;;;;5066250;28;20311;-65
2024/03/14 00:29:37;;;;;;;2.73;2.43;;;;;;;;;;5064085;28;20241;-65
2024/03/14 00:32:04;;;;;;;2.47;2.37;;;;;;;;;;5073322;28;20200;-65
2024/03/14 00:34:31;;;;;;;2.43;2.20;;;;;;;;;;5060320;28;20290;-65
2024/03/14 00:36:59;;;;;;;2.17;2.07;;;;;;;;;;5072073;28;20213;-65
2024/03/14 00:39:27;;;;;;;2.10;2.00;;;;;;;;;;5070304;28;20737;-65
2024/03/14 00:41:55;;;;;;;2.67;2.53;;;;;;;;;;5072100;28;20291;-65
2024/03/14 00:44:22;;;;;;;2.30;2.20;;;;;;;;;;5070856;28;20201;-65
2024/03/14 00:46:50;;;;;;;2.23;1.97;;;;;;;;;;5066902;28;20215;-65
2024/03/14 00:49:17;;;;;;;2.60;2.20;;;;;;;;;;5074623;28;20199;-65
2024/03/14 00:51:45;;;;;;;2.27;2.10;;;;;;;;;;5074325;28;20407;-65
2024/03/14 00:54:12;;;;;;;2.00;1.90;;;;;;;;;;5069200;28;20284;-66
2024/03/14 00:56:43;;;;;;;2.53;2.07;;;;;;;;;;5072591;28;20260;-65
2024/03/14 00:59:12;;;;;;;2.10;2.00;;;;;;;;;;5070063;28;20211;-65
2024/03/14 01:01:40;;;;;;;2.37;2.27;;;;;;;;;;5061836;28;20202;-65
2024/03/14 01:04:07;;;;;;;2.30;1.63;;;;;;;;;;5064002;28;20260;-65
2024/03/14 01:06:34;;;;;;;1.63;1.57;;;;;;;;;;5063019;28;20578;-65
2024/03/14 01:09:02;;;;;;;1.87;1.77;;;;;;;;;;5074264;28;20216;-65
2024/03/14 01:11:29;;;;;;;2.30;2.20;;;;;;;;;;5082135;28;20251;-65
2024/03/14 01:13:56;;;;;;;1.73;1.60;;;;;;;;;;5073544;28;20666;-66
2024/03/14 01:16:23;;;;;;;1.33;1.23;;;;;;;;;;5072821;28;20750;-65
2024/03/14 01:18:51;;;;;;;1.57;1.47;;;;;;;;;;5070670;28;20251;-65
2024/03/14 01:21:20;;;;;;;0.77;0.77;;;;;;;;;;5068118;28;20225;-65
2024/03/14 01:23:47;;;;;;;1.33;1.20;;;;;;;;;;5073197;28;20198;-65
2024/03/14 01:26:14;;;;;;;1.03;0.70;;;;;;;;;;5063446;28;20203;-66
2024/03/14 01:28:42;;;;;;;2.80;2.60;;;;;;;;;;5056738;28;20813;-65
2024/03/14 01:31:11;;;;;;;1.30;1.27;;;;;;;;;;5074025;28;20673;-65
2024/03/14 01:33:38;;;;;;;2.07;1.03;;;;;;;;;;5072175;28;20237;-65
2024/03/14 01:36:06;;;;;;;1.07;0.90;;;;;;;;;;5073056;28;20206;-65
2024/03/14 01:38:34;;;;;;;0.70;0.70;;;;;;;;;;5077390;28;20221;-65
2024/03/14 01:41:02;;;;;;;1.40;1.00;;;;;;;;;;5065245;28;20667;-65
2024/03/14 01:43:29;;;;;;;0.73;0.73;;;;;;;;;;5074328;28;20574;-65
2024/03/14 01:45:57;;;;;;;0.80;0.80;;;;;;;;;;5073169;28;20621;-65
2024/03/14 01:48:24;;;;;;;0.57;0.57;;;;;;;;;;5062167;28;20321;-66
2024/03/14 01:50:51;;;;;;;2.93;0.83;;;;;;;;;;5071777;28;20249;-65
2024/03/14 01:53:20;;;;;;;0.53;0.53;;;;;;;;;;5077795;28;20675;-65
2024/03/14 01:55:48;;;;;;;1.00;0.53;;;;;;;;;;5088901;28;20208;-65
2024/03/14 01:58:15;;;;;;;2.40;0.90;;;;;;;;;;5091302;28;20249;-68
2024/03/14 02:00:43;;;;;;;0.90;0.43;;;;;;;;;;5082637;28;20202;-65
2024/03/14 02:03:11;;;;;;;2.17;0.70;;;;;;;;;;5072843;28;20292;-66
2024/03/14 02:05:39;;;;;;;0.47;0.47;;;;;;;;;;5070616;28;20219;-65
2024/03/14 02:08:06;;;;;;;0.40;0.40;;;;;;;;;;5073575;28;20214;-65
2024/03/14 02:10:35;;;;;;;0.70;0.70;;;;;;;;;;5074280;28;20194;-65
2024/03/14 02:13:02;;;;;;;0.47;0.47;;;;;;;;;;5064703;28;20275;-65
2024/03/14 02:15:29;;;;;;;0.57;0.57;;;;;;;;;;5072103;28;20195;-65
2024/03/14 02:17:57;;;;;;;0.43;0.43;;;;;;;;;;5071245;28;20343;-66
2024/03/14 02:20:25;;;;;;;0.57;0.57;;;;;;;;;;5070022;28;20304;-65
2024/03/14 02:22:52;;;;;;;0.73;0.63;;;;;;;;;;5072929;28;20204;-65
2024/03/14 02:25:19;;;;;;;0.60;0.50;;;;;;;;;;5072437;28;20298;-65
2024/03/14 02:27:48;;;;;;;0.67;0.63;;;;;;;;;;5071634;28;20234;-65
2024/03/14 02:30:15;;;;;;;0.60;0.60;;;;;;;;;;5072054;28;20279;-65
2024/03/14 02:32:46;;;;;;;0.77;0.73;;;;;;;;;;5076739;28;20207;-65
2024/03/14 02:35:14;;;;;;;1.07;0.87;;;;;;;;;;5089832;28;20210;-65
2024/03/14 02:37:41;;;;;;;1.20;0.70;;;;;;;;;;5081490;28;20705;-65
2024/03/14 02:40:11;;;;;;;0.70;0.70;;;;;;;;;;5072296;28;20642;-65
2024/03/14 02:42:38;;;;;;;0.87;0.87;;;;;;;;;;5073800;28;20194;-66
2024/03/14 02:45:06;;;;;;;1.30;1.20;;;;;;;;;;5073383;28;20683;-65
2024/03/14 02:47:35;;;;;;;0.80;0.80;;;;;;;;;;5071829;28;20320;-65
2024/03/14 02:50:02;;;;;;;0.83;0.83;;;;;;;;;;5069787;28;20205;-65
2024/03/14 02:52:30;;;;;;;0.90;0.90;;;;;;;;;;5070753;28;20284;-65
2024/03/14 02:54:57;;;;;;;0.77;0.77;;;;;;;;;;5071484;28;20253;-65
2024/03/14 02:57:24;;;;;;;0.70;0.70;;;;;;;;;;5071821;28;20224;-65
2024/03/14 02:59:52;;;;;;;2.30;0.80;;;;;;;;;;5073022;28;20216;-65
2024/03/14 03:02:19;;;;;;;1.17;1.17;;;;;;;;;;5071337;28;20314;-65
2024/03/14 03:04:47;;;;;;;1.30;1.30;;;;;;;;;;5072882;28;20701;-65
2024/03/14 03:07:14;;;;;;;1.37;1.37;;;;;;;;;;5073335;28;20618;-65
2024/03/14 03:09:41;;;;;;;1.07;1.03;;;;;;;;;;5074294;28;20621;-66
2024/03/14 03:12:08;;;;;;;1.00;1.00;;;;;;;;;;5076606;28;20202;-65
2024/03/14 03:14:36;;;;;;;0.80;0.80;;;;;;;;;;5076671;28;20272;-65
2024/03/14 03:17:05;;;;;;;1.17;1.17;;;;;;;;;;5076044;28;20311;-65
2024/03/14 03:19:36;;;;;;;1.37;1.17;;;;;;;;;;5072641;28;20218;-63
2024/03/14 03:22:05;;;;;;;1.53;1.30;;;;;;;;;;5086238;28;20277;-65
2024/03/14 03:24:32;;;;;;;0.80;0.80;;;;;;;;;;5077299;28;20237;-65
2024/03/14 03:27:01;;;;;;;1.50;1.40;;;;;;;;;;5077020;28;20205;-64
2024/03/14 03:29:27;;;;;;;1.63;1.60;;;;;;;;;;5076822;28;20198;-65
2024/03/14 03:31:54;;;;;;;1.47;1.37;;;;;;;;;;5076082;28;20203;-65
2024/03/14 03:34:23;;;;;;;1.77;1.67;;;;;;;;;;5073367;28;20207;-65
2024/03/14 03:36:50;;;;;;;4.20;2.00;;;;;;;;;;5080333;28;20279;-65
2024/03/14 03:39:18;;;;;;;1.30;1.30;;;;;;;;;;5082964;28;20220;-65
2024/03/14 03:41:46;;;;;;;1.70;1.60;;;;;;;;;;5074607;28;20197;-65
2024/03/14 03:44:13;;;;;;;1.80;1.80;;;;;;;;;;5074905;28;20261;-65
2024/03/14 03:46:45;;;;;;;1.67;1.60;;;;;;;;;;5075471;28;20210;-64
2024/03/14 03:49:11;;;;;;;1.83;1.67;;;;;;;;;;5076526;28;20208;-65
2024/03/14 03:51:40;;;;;;;1.20;1.20;;;;;;;;;;5072054;28;20241;-64
2024/03/14 03:54:06;;;;;;;1.43;1.43;;;;;;;;;;5076523;28;20289;-64
2024/03/14 03:56:35;;;;;;;1.50;1.40;;;;;;;;;;5066598;28;20204;-64
2024/03/14 03:59:01;;;;;;;1.53;1.53;;;;;;;;;;5068901;28;20223;-64
2024/03/14 04:01:28;;;;;;;1.23;1.23;;;;;;;;;;5074948;28;20200;-64
2024/03/14 04:03:55;;;;;;;1.70;1.60;;;;;;;;;;5075113;28;20205;-65
2024/03/14 04:06:23;;;;;;;1.70;1.70;;;;;;;;;;5073373;28;20272;-64
2024/03/14 04:08:50;;;;;;;1.30;1.30;;;;;;;;;;5075668;28;20211;-65
2024/03/14 04:11:18;;;;;;;2.30;2.20;;;;;;;;;;5076006;28;20309;-65
2024/03/14 04:13:44;;;;;;;1.80;1.47;;;;;;;;;;5075971;28;20200;-65
2024/03/14 04:16:12;;;;;;;1.70;1.60;;;;;;;;;;5070256;28;20574;-65
2024/03/14 04:18:39;;;;;;;1.80;1.70;;;;;;;;;;5078103;28;20227;-65
2024/03/14 04:21:07;;;;;;;3.10;2.90;;;;;;;;;;5092314;28;20267;-65
2024/03/14 04:23:35;;;;;;;2.40;2.20;;;;;;;;;;5090477;28;20339;-65
2024/03/14 04:26:03;;;;;;;3.07;2.57;;;;;;;;;;5082582;28;20287;-65
2024/03/14 04:28:33;;;;;;;1.70;1.60;;;;;;;;;;5073433;28;20249;-65
2024/03/14 04:31:01;;;;;;;1.23;1.23;;;;;;;;;;5076002;28;20209;-65
2024/03/14 04:33:30;;;;;;;1.40;1.37;;;;;;;;;;5075746;28;20209;-64
2024/03/14 04:35:58;;;;;;;1.93;1.27;;;;;;;;;;5076209;28;20273;-65
2024/03/14 04:38:25;;;;;;;1.63;1.50;;;;;;;;;;5071485;28;20687;-64
2024/03/14 04:40:53;;;;;;;1.20;1.20;;;;;;;;;;5076385;28;20216;-64
2024/03/14 04:43:22;;;;;;;1.47;1.47;;;;;;;;;;5078920;28;20720;-64
2024/03/14 04:45:49;;;;;;;1.33;1.33;;;;;;;;;;5067655;28;20264;-64
2024/03/14 04:48:19;;;;;;;2.07;1.27;;;;;;;;;;5071146;28;20366;-65
2024/03/14 04:50:48;;;;;;;1.03;1.03;;;;;;;;;;5063338;28;20289;-65
2024/03/14 04:53:16;;;;;;;1.20;1.20;;;;;;;;;;5075021;28;20201;-64
2024/03/14 04:55:45;;;;;;;1.00;1.00;;;;;;;;;;5073569;28;20218;-65
2024/03/14 04:58:15;;;;;;;1.50;1.40;;;;;;;;;;5075079;28;20250;-65
2024/03/14 05:00:42;;;;;;;1.47;1.37;;;;;;;;;;5060961;28;20718;-65
2024/03/14 05:03:10;;;;;;;2.53;1.17;;;;;;;;;;5057833;28;20226;-65
2024/03/14 05:05:37;;;;;;;2.60;1.30;;;;;;;;;;5065544;28;20205;-65
2024/03/14 05:08:04;;;;;;;1.50;1.40;;;;;;;;;;5074347;28;20226;-64
2024/03/14 05:10:31;;;;;;;2.37;1.50;;;;;;;;;;5062674;28;20202;-65
2024/03/14 05:12:59;;;;;;;2.17;2.07;;;;;;;;;;5070165;28;20197;-64
2024/03/14 05:15:26;;;;;;;2.00;1.90;;;;;;;;;;5072161;28;20661;-66
2024/03/14 05:17:54;;;;;;;2.17;2.07;;;;;;;;;;5074312;28;20290;-65
2024/03/14 05:20:23;;;;;;;3.83;2.63;;;;;;;;;;5063693;28;20227;-64
2024/03/14 05:22:52;;;;;;;2.73;2.53;;;;;;;;;;5068786;28;20265;-64
2024/03/14 05:25:19;;;;;;;2.07;1.97;;;;;;;;;;5074338;28;20222;-64
2024/03/14 05:27:49;;;;;;;2.20;2.00;;;;;;;;;;5073754;28;20222;-64
2024/03/14 05:30:18;;;;;;;2.40;2.20;;;;;;;;;;5061228;28;20195;-64
2024/03/14 05:32:51;;;;;;;4.30;3.97;;;;;;;;;;5074561;28;20198;-64
2024/03/14 05:35:19;;;;;;;3.40;3.20;;;;;;;;;;5063844;28;20265;-64
2024/03/14 05:37:50;;;;;;;4.03;3.73;;;;;;;;;;5069105;28;20307;-64
2024/03/14 05:40:17;;;;;;;3.67;3.47;;;;;;;;;;5065527;28;20218;-64
2024/03/14 05:42:48;;;;;;;3.57;3.37;;;;;;;;;;5065129;28;20252;-65
2024/03/14 05:45:16;;;;;;;3.73;3.53;;;;;;;;;;5055290;28;20200;-65
2024/03/14 05:47:46;;;;;;;2.43;2.23;;;;;;;;;;5065229;28;20227;-64
2024/03/14 05:50:15;;;;;;;2.33;2.23;;;;;;;;;;5065503;28;20195;-64
2024/03/14 05:52:47;;;;;;;1.90;1.80;;;;;;;;;;5074041;28;20248;-65
2024/03/14 05:55:14;;;;;;;2.00;1.90;;;;;;;;;;5070560;28;20301;-64
2024/03/14 05:57:43;;;;;;;2.37;1.57;;;;;;;;;;5062372;28;20227;-64
2024/03/14 06:00:11;;;;;;;2.53;2.33;;;;;;;;;;5054118;28;20223;-64
2024/03/14 06:02:38;;;;;;;1.97;1.87;;;;;;;;;;5061748;28;20842;-64
2024/03/14 06:05:07;;;;;;;1.77;1.67;;;;;;;;;;5073442;28;20264;-64
2024/03/14 06:07:34;;;;;;;2.23;2.00;;;;;;;;;;5069771;28;20785;-64
2024/03/14 06:10:03;;;;;;;4.73;2.57;;;;;;;;;;5072229;28;20197;-64
2024/03/14 06:12:30;;;;;;;6.17;4.03;;;;;;;;;;5069094;28;20195;-65
2024/03/14 06:14:58;;;;;;;3.70;3.40;;;;;;;;;;5070175;28;20673;-64
2024/03/14 06:17:26;;;;;;;3.13;2.87;;;;;;;;;;5068019;28;20253;-65
2024/03/14 06:19:53;;;;;;;2.60;2.40;;;;;;;;;;5073483;28;20223;-64
2024/03/14 06:22:21;;;;;;;1.90;1.80;;;;;;;;;;5073963;28;20255;-64
2024/03/14 06:24:48;;;;;;;2.10;2.00;;;;;;;;;;5070890;28;20200;-65
2024/03/14 06:27:15;;;;;;;3.20;1.67;;;;;;;;;;5057555;28;20270;-64
2024/03/14 06:29:42;;;;;;;1.83;1.70;;;;;;;;;;5069556;28;20662;-64
2024/03/14 06:32:11;;;;;;;0.90;0.90;;;;;;;;;;5073524;28;20274;-64
2024/03/14 06:34:39;;;;;;;1.50;1.37;;;;;;;;;;5071522;28;20623;-64
2024/03/14 06:37:06;;;;;;;0.80;0.80;;;;;;;;;;5072963;28;20213;-64
2024/03/14 06:39:34;;;;;;;1.27;1.27;;;;;;;;;;5073332;28;20221;-64
2024/03/14 06:42:03;;;;;;;1.00;1.00;;;;;;;;;;5069286;28;20206;-65
2024/03/14 06:44:30;;;;;;;2.57;1.27;;;;;;;;;;5067910;28;20205;-64
2024/03/14 06:46:57;;;;;;;1.80;1.07;;;;;;;;;;5064957;28;20253;-64
2024/03/14 06:49:26;;;;;;;1.80;1.10;;;;;;;;;;5068225;28;20740;-65
2024/03/14 06:51:53;;;;;;;1.80;1.00;;;;;;;;;;5060582;28;20205;-65
2024/03/14 06:54:20;;;;;;;0.93;0.80;;;;;;;;;;5068952;28;20203;-64
2024/03/14 06:56:47;;;;;;;1.70;0.80;;;;;;;;;;5059275;28;20725;-64
2024/03/14 06:59:15;;;;;;;3.60;2.53;;;;;;;;;;5075766;28;20665;-64
2024/03/14 07:01:46;;;;;;;2.70;2.50;;;;;;;;;;5060821;28;20224;-64
2024/03/14 07:04:14;;;;;;;1.67;1.57;;;;;;;;;;5076469;28;20194;-65
2024/03/14 07:06:42;;;;;;;1.40;1.30;;;;;;;;;;5060420;28;20219;-64
2024/03/14 07:09:09;;;;;;;1.45;1.35;;;;;;;;;;5070699;28;20436;-65
2024/03/14 07:11:37;;;;;;;2.83;1.83;;;;;;;;;;5076265;28;20694;-65
2024/03/14 07:14:04;;;;;;;2.10;1.53;;;;;;;;;;5069274;28;20206;-66
2024/03/14 07:16:33;;;;;;;2.23;2.00;;;;;;;;;;5056534;28;20206;-65
2024/03/14 07:19:00;;;;;;;4.37;1.70;;;;;;;;;;5072456;28;20222;-65
2024/03/14 07:21:28;;;;;;;2.57;1.60;;;;;;;;;;5071272;28;20226;-66
2024/03/14 07:23:55;;;;;;;2.80;1.60;;;;;;;;;;5069721;28;20207;-66
2024/03/14 07:26:23;;;;;;;1.67;1.67;;;;;;;;;;5069262;28;20617;-66
2024/03/14 07:28:53;;;;;;;2.03;1.93;;;;;;;;;;5076403;28;20320;-66
2024/03/14 07:31:20;;;;;;;1.40;1.30;;;;;;;;;;5078640;28;20352;-68
2024/03/14 07:33:48;;;;;;;1.23;1.07;;;;;;;;;;5068788;28;20193;-68
2024/03/14 07:36:16;;;;;;;2.27;1.10;;;;;;;;;;5071323;28;20203;-69
2024/03/14 07:38:47;;;;;;;2.67;2.47;;;;;;;;;;5070200;28;20225;-69
2024/03/14 07:41:21;;;;;;;5.47;2.90;;;;;;;;;;5071050;28;20224;-69
2024/03/14 07:43:53;;;;;;;2.13;2.03;;;;;;;;;;5082257;28;20833;-68
2024/03/14 07:46:20;;;;;;;1.90;1.77;;;;;;;;;;5067093;28;20203;-68
2024/03/14 07:48:49;;;;;;;1.70;1.40;;;;;;;;;;5067720;28;20280;-69
2024/03/14 07:51:36;;;;;;;1.40;1.40;;;;;;;;;;5058704;28;20198;-64
2024/03/14 07:54:03;;;;;;;1.60;1.50;;;;;;;;;;5079360;28;20202;-67
2024/03/14 07:56:30;;;;;;;1.53;1.37;;;;;;;;;;5067251;28;20854;-66
2024/03/14 07:59:00;;;;;;;1.13;1.10;;;;;;;;;;5072755;28;20223;-66
2024/03/14 08:01:28;;;;;;;0.97;0.97;;;;;;;;;;5063714;28;20238;-66
2024/03/14 08:03:57;;;;;;;1.90;1.80;;;;;;;;;;5064574;28;20287;-65
2024/03/14 08:06:25;;;;;;;1.77;1.67;;;;;;;;;;5064310;28;20207;-66
2024/03/14 08:08:52;;;;;;;1.47;1.43;;;;;;;;;;5071538;28;20231;-66
2024/03/14 08:11:22;;;;;;;1.23;1.13;;;;;;;;;;5071195;28;20231;-66
2024/03/14 08:13:50;;;;;;;0.97;0.70;;;;;;;;;;5064576;28;20210;-66
2024/03/14 08:16:22;;;;;;;1.57;1.57;;;;;;;;;;5062862;28;20267;-65
2024/03/14 08:18:49;;;;;;;1.70;1.60;;;;;;;;;;5070715;28;20219;-67
2024/03/14 08:21:16;;;;;;;1.83;1.73;;;;;;;;;;5073954;28;20232;-65
2024/03/14 08:23:44;;;;;;;1.80;1.70;;;;;;;;;;5068903;28;20203;-66
2024/03/14 08:26:12;;;;;;;1.60;1.60;;;;;;;;;;5064723;28;20282;-66
2024/03/14 08:28:41;;;;;;;1.60;1.60;;;;;;;;;;5064469;28;20239;-66
2024/03/14 08:31:08;;;;;;;1.00;1.00;;;;;;;;;;5070067;28;20226;-65
2024/03/14 08:33:44;;;;;;;1.60;1.60;;;;;;;;;;5066498;28;20277;-66
2024/03/14 08:36:11;;;;;;;1.90;1.37;;;;;;;;;;5075091;28;20203;-66
2024/03/14 08:38:39;;;;;;;1.80;1.70;;;;;;;;;;5070181;28;20698;-65
2024/03/14 08:41:07;;;;;;;1.53;1.53;;;;;;;;;;5071338;28;20295;-66
2024/03/14 08:43:35;;;;;;;2.40;2.13;;;;;;;;;;5072864;28;20603;-66
2024/03/14 08:46:02;;;;;;;2.83;2.27;;;;;;;;;;5069813;28;20258;-66
2024/03/14 08:48:29;;;;;;;2.37;2.20;;;;;;;;;;5073501;28;20230;-66
2024/03/14 08:50:57;;;;;;;2.83;1.53;;;;;;;;;;5068722;28;20200;-66
2024/03/14 08:53:30;;;;;;;3.00;2.73;;;;;;;;;;5073294;28;20199;-66
2024/03/14 08:55:56;;;;;;;1.83;1.73;;;;;;;;;;5073142;28;20746;-66
2024/03/14 08:58:25;;;;;;;3.60;3.40;;;;;;;;;;5070778;28;20216;-66
2024/03/14 09:00:52;;;;;;;3.57;3.33;;;;;;;;;;5069180;28;20231;-67
2024/03/14 09:03:20;;;;;;;3.43;3.23;;;;;;;;;;5070599;28;20196;-67
2024/03/14 09:05:48;;;;;;;3.30;3.07;;;;;;;;;;5068085;28;20274;-66
2024/03/14 09:08:18;;;;;;;3.40;3.20;;;;;;;;;;5068042;28;20216;-67
2024/03/14 09:10:45;;;;;;;3.77;3.57;;;;;;;;;;5069486;28;20203;-66
2024/03/14 09:13:14;;;;;;;3.43;3.23;;;;;;;;;;5073029;28;20238;-66
2024/03/14 09:15:41;;;;;;;3.83;3.63;;;;;;;;;;5072496;28;20196;-66
2024/03/14 09:18:10;;;;;;;3.87;3.67;;;;;;;;;;5068413;28;20251;-67
2024/03/14 09:20:38;;;;;;;3.55;3.45;;;;;;;;;;5067090;28;20536;-67
2024/03/14 09:23:05;;;;;;;3.97;3.77;;;;;;;;;;5072988;28;20288;-67
2024/03/14 09:25:32;;;;;;;4.27;4.07;;;;;;;;;;5070295;28;20204;-64
2024/03/14 09:28:00;;;;;;;4.00;3.80;;;;;;;;;;5070493;28;20225;-65
2024/03/14 09:30:27;;;;;;;3.67;3.50;;;;;;;;;;5073005;28;20580;-66
2024/03/14 09:32:55;;;;;;;4.37;4.07;;;;;;;;;;5069875;28;20211;-66
2024/03/14 09:35:26;;;;;;;3.70;3.60;;;;;;;;;;5068509;28;20695;-66
2024/03/14 09:37:54;;;;;;;4.60;4.20;;;;;;;;;;5072365;28;20252;-67
2024/03/14 09:40:22;;;;;;;4.00;3.70;;;;;;;;;;5072853;28;20298;-67
2024/03/14 09:42:56;;;;;;;3.47;3.27;;;;;;;;;;5072754;28;20253;-66
2024/03/14 09:45:23;;;;;;;3.83;3.63;;;;;;;;;;5069937;28;20227;-65
2024/03/14 09:47:51;;;;;;;3.00;2.90;;;;;;;;;;5066286;28;20224;-66
2024/03/14 09:50:20;;;;;;;4.37;4.10;;;;;;;;;;5072409;28;20193;-65
2024/03/14 09:52:47;;;;;;;4.13;3.93;;;;;;;;;;5072774;28;20196;-68
2024/03/14 09:55:14;;;;;;;4.60;4.30;;;;;;;;;;5071340;28;20261;-67
2024/03/14 09:57:41;;;;;;;4.03;3.83;;;;;;;;;;5070371;28;20757;-66
2024/03/14 10:00:09;;;;;;;4.70;4.50;;;;;;;;;;5067253;28;21854;-68
2024/03/14 10:02:36;;;;;;;4.67;4.43;;;;;;;;;;5068329;28;20287;-68
2024/03/14 10:05:06;;;;;;;5.10;4.73;;;;;;;;;;5072416;28;20209;-68
2024/03/14 10:07:33;;;;;;;4.50;4.27;;;;;;;;;;5070500;28;20734;-68
2024/03/14 10:10:00;;;;;;;4.70;4.40;;;15.10;99.90;;;;;;5071342;28;20253;-69
2024/03/14 10:12:27;;;;;;;5.57;5.17;;;15.30;99.90;;;;;;5052053;28;20199;-69
2024/03/14 10:14:59;;;;;;;5.70;5.30;;;15.60;99.90;;;;;;5056512;28;20253;-69
2024/03/14 10:17:26;;;;;;;5.13;4.83;;;15.60;99.90;;;;;;5057109;28;20483;-69
2024/03/14 10:19:53;;;;;;;5.17;4.87;;;15.80;99.90;;;;;;5060033;28;20200;-62
2024/03/14 10:22:20;;;;;;;4.77;4.57;;;15.70;99.90;;;;;;5051092;28;20312;-65
2024/03/14 10:24:47;;;;;;;6.20;5.23;;;15.80;99.90;;;;;;5054470;28;20207;-68
2024/03/14 10:27:16;;;;;;;5.03;4.73;;;16.00;99.90;;;;;;5055494;28;20869;-68
2024/03/14 10:29:45;;;;;;;5.57;5.27;;;16.10;99.90;;;;;;5050613;28;20279;-67
2024/03/14 10:32:12;;;;;;;5.40;5.00;;;16.10;99.90;;;;;;5059723;28;20200;-68
2024/03/14 10:34:39;;;;;;;4.97;4.67;;;16.10;99.90;;;;;;5053646;28;20929;-65
2024/03/14 10:37:07;;;;;;;5.90;5.50;;;16.70;99.90;;;;;;5056155;28;20212;-65
2024/03/14 10:39:34;;;;;;;5.50;5.20;;;16.10;99.90;;;;;;5057686;28;20203;-64
2024/03/14 10:42:02;;;;;;;5.77;5.37;;;16.50;99.90;;;;;;5058913;28;20577;-69
2024/03/14 10:44:30;;;;;;;6.10;5.70;;;16.70;99.90;;;;;;5054489;28;20201;-66
2024/03/14 10:46:57;;;;;;;5.67;5.30;;;17.00;99.90;;;;;;5061434;28;20254;-66
2024/03/14 10:49:24;;;;;;;6.40;6.00;;;17.10;99.90;;;;;;5058885;28;20259;-68
2024/03/14 10:51:53;;;;;;;7.50;7.00;;;17.00;99.90;;;;;;5057612;28;20256;-68
2024/03/14 10:54:23;;;;;;;4.87;4.63;;;16.80;99.90;;;;;;5055688;28;20204;-66
2024/03/14 10:56:50;;;;;;;6.00;5.60;;;16.40;99.90;;;;;;5057242;28;20208;-67
2024/03/14 10:59:19;;;;;;;5.83;5.53;;;16.00;99.90;;;;;;5057834;28;20204;-66
2024/03/14 11:01:50;;;;;;;4.87;4.57;;;15.80;99.90;;;;;;5055485;28;20220;-64
2024/03/14 11:04:17;;;;;;;5.17;4.87;;;15.60;99.90;;;;;;5059684;28;20197;-67
2024/03/14 11:06:45;;;;;;;5.87;5.37;;;15.20;99.90;;;;;;5057041;28;20210;-67
2024/03/14 11:09:12;;;;;;;5.17;4.87;;;15.20;99.90;;;;;;5071441;28;20266;-67
2024/03/14 11:11:39;;;;;;;6.73;6.13;;;15.40;99.90;;;;;;5058664;28;20246;-68
2024/03/14 11:14:07;;;;;;;5.43;5.10;;;15.30;99.90;;;;;;5061846;28;20200;-68
2024/03/14 11:16:35;;;;;;;5.77;5.40;;;;;;;;;;5059843;28;20553;-67
2024/03/14 11:19:03;;;;;;;5.27;4.97;;;;;;;;;;5075109;28;20223;-67
2024/03/14 11:21:33;;;;;;;4.67;4.43;;;;;;;;;;5072800;28;20216;-64
2024/03/14 11:24:02;;;;;;;4.87;4.57;;;;;;;;;;5074382;28;20287;-67
2024/03/14 11:26:30;;;;;;;3.90;3.70;;;;;;;;;;5073147;28;20436;-66
2024/03/14 11:29:02;;;;;;;4.53;4.20;;;;;;;;;;5074596;28;20259;-62
2024/03/14 11:31:34;;;;;;;4.73;4.43;;;;;;;;;;5074595;28;20200;-63
2024/03/14 11:34:02;;;;;;;4.07;3.87;;;;;;;;;;5075437;28;20276;-62
2024/03/14 11:36:30;;;;;;;4.87;4.47;;;;;;;;;;5075398;28;20754;-62
2024/03/14 11:38:59;;;;;;;4.30;4.00;;;;;;;;;;5072551;28;20259;-62
2024/03/14 11:41:26;;;;;;;3.83;3.63;;;;;;;;;;5066958;28;20288;-62
2024/03/14 11:43:56;;;;;;;4.37;4.07;;;;;;;;;;5074882;28;20204;-62
2024/03/14 11:46:23;;;;;;;3.83;3.63;;;;;;;;;;5077688;28;20197;-62
2024/03/14 11:48:50;;;;;;;3.83;3.60;;;;;;;;;;5070970;28;20251;-69
2024/03/14 11:51:18;;;;;;;4.30;4.00;;;;;;;;;;5074740;28;20656;-68
2024/03/14 11:53:46;;;;;;;3.90;3.70;;;;;;;;;;5075488;28;20260;-65
2024/03/14 11:56:13;;;;;;;5.20;4.93;;;;;;;;;;5073900;28;20200;-67
2024/03/14 11:58:41;;;;;;;4.63;4.40;;;;;;;;;;5074394;28;20223;-67
2024/03/14 12:01:08;;;;;;;5.53;5.13;;;;;;;;;;5072774;28;20220;-67
2024/03/14 12:03:35;;;;;;;4.20;3.93;;;12.90;99.90;;;;;;5074344;28;20640;-68
2024/03/14 12:06:05;;;;;;;5.27;4.80;;;13.00;99.90;;;;;;5056082;28;20204;-67
2024/03/14 12:08:32;;;;;;;4.63;4.30;;;13.10;99.90;;;;;;5060533;28;20272;-68
2024/03/14 12:10:59;;;;;;;5.53;5.17;;;13.40;99.90;;;;;;5052338;28;20273;-69
2024/03/14 12:13:27;;;;;;;5.17;4.87;;;13.60;99.90;;;;;;5058642;28;20560;-68
2024/03/14 12:15:58;;;;;;;4.97;4.57;;;13.80;99.90;;;;;;5055417;28;20672;-70
2024/03/14 12:18:26;;;;;;;4.60;4.30;;;13.90;99.90;;;;;;5051334;28;20306;-62
2024/03/14 12:20:54;;;;;;;5.17;4.77;;;13.90;99.90;;;;;;5048193;28;20199;-62
2024/03/14 12:23:23;;;;;;;4.43;4.03;;;14.00;99.90;;;;;;5055672;28;20283;-62
2024/03/14 12:25:50;;;;;;;3.20;3.03;;;14.00;99.90;;;;;;5053453;28;20303;-62
2024/03/14 12:28:17;;;;;;;4.03;3.83;;;14.10;99.90;;;;;;5064505;28;20223;-63
2024/03/14 12:30:45;;;;;;;4.20;4.00;;;14.00;99.90;;;;;;5055420;28;20218;-62
2024/03/14 12:33:12;;;;;;;4.47;3.50;;;14.10;99.90;;;;;;5056290;28;20230;-62
2024/03/14 12:35:40;;;;;;;4.07;3.87;;;14.10;99.90;;;;;;5051413;28;20262;-62
2024/03/14 12:38:07;;;;;;;2.93;2.80;;;14.20;99.90;;;;;;5056079;28;20223;-62
2024/03/14 12:40:34;;;;;;;2.83;2.20;;;14.10;99.90;;;;;;5054381;28;20204;-63
2024/03/14 12:43:01;;;;;;;2.50;2.37;;;13.90;99.90;;;;;;5053482;28;20227;-62
2024/03/14 12:45:30;;;;;;;3.23;2.10;;;13.80;99.90;;;;;;5056646;28;20257;-62
2024/03/14 12:47:59;;;;;;;1.67;1.67;;;13.70;99.90;;;;;;5053356;28;20233;-62
2024/03/14 12:50:28;;;;;;;1.60;1.60;;;13.60;99.90;;;;;;5078612;28;20203;-62
2024/03/14 12:53:02;;;;;;;5.40;4.83;;;13.50;99.90;;;;;;5058862;28;20214;-62
2024/03/14 12:55:30;;;;;;;4.43;3.87;;;13.60;99.90;;;;;;5050069;28;20669;-62
2024/03/14 12:57:57;;;;;;;3.13;2.90;;;13.60;99.90;;;;;;5072284;28;20280;-62
2024/03/14 13:00:26;;;;;;;2.97;2.40;;;13.60;99.90;;;;;;5059317;28;20206;-62
2024/03/14 13:02:55;;;;;;;2.90;2.70;;;13.80;99.90;;;;;;5054549;28;20700;-62
2024/03/14 13:05:25;;;;;;;4.13;3.70;;;13.70;99.90;;;;;;5059381;28;20200;-63
2024/03/14 13:08:08;;;;;;;3.33;3.13;;;13.80;99.90;;;;;;5057807;28;20224;-62
2024/03/14 13:10:37;;;;;;;3.43;3.30;;;13.80;99.90;;;;;;5057041;28;20273;-62
2024/03/14 13:13:07;;;;;;;4.60;4.35;;;13.90;99.90;;;;;;5052258;28;20449;-63
2024/03/14 13:15:36;;;;;;;2.87;2.77;;;14.00;99.90;;;;;;5059322;28;20215;-62
2024/03/14 13:18:04;;;;;;;3.80;3.07;;;13.90;99.90;;;;;;5060778;28;20303;-62
2024/03/14 13:20:35;;;;;;;4.00;3.70;;;13.80;99.90;;;;;;5070893;28;20264;-61
2024/03/14 13:23:03;;;;;;;3.83;3.63;;;13.60;99.90;;;;;;5048551;28;20597;-62
2024/03/14 13:25:30;;;;;;;3.40;3.20;;;13.60;99.90;;;;;;5052216;28;20204;-62
2024/03/14 13:27:59;;;;;;;3.10;2.90;;;13.60;99.90;;;;;;5068281;28;20699;-61
2024/03/14 13:30:26;;;;;;;4.30;4.00;;;13.50;99.90;;;;;;5072288;28;20199;-62
2024/03/14 13:32:56;;;;;;;4.17;3.80;;;13.50;99.90;;;;;;5054495;28;20208;-62
2024/03/14 13:35:25;;;;;;;4.33;3.70;;;13.50;99.90;;;;;;5051928;28;20291;-61
2024/03/14 13:37:54;;;;;;;3.33;3.17;;;13.60;99.90;;;;;;5054283;28;20660;-62
2024/03/14 13:40:22;;;;;;;3.60;3.40;;;13.60;99.90;;;;;;5054545;28;20206;-61
2024/03/14 13:42:51;;;;;;;3.87;3.13;;;13.70;99.90;;;;;;5054691;28;20672;-62
2024/03/14 13:45:18;;;;;;;4.03;3.80;;;13.80;99.90;;;;;;5062164;28;20226;-62
2024/03/14 13:47:46;;;;;;;3.50;3.30;;;13.80;99.90;;;;;;5054924;28;20258;-62
2024/03/14 13:50:17;;;;;;;3.00;2.80;;;13.70;99.90;;;;;;5050489;28;20304;-62
2024/03/14 13:52:48;;;;;;;3.00;2.70;;;13.60;99.90;;;;;;5054014;28;20193;-62
2024/03/14 13:55:28;;;;;;;2.40;2.30;;;13.60;99.90;;;;;;5053435;28;20196;-62
2024/03/14 13:57:57;;;;;;;3.53;3.33;;;13.20;99.90;;;;;;5058292;28;20223;-62
2024/03/14 14:00:28;;;;;;;3.10;3.00;;;13.70;99.90;;;;;;5070242;28;20250;-62
2024/03/14 14:02:57;;;;;;;2.27;2.03;;;13.70;99.90;;;;;;5055641;28;20225;-62
2024/03/14 14:05:27;;;;;;;2.20;2.10;;;13.60;99.90;;;;;;5067986;28;20584;-63
2024/03/14 14:07:59;;;;;;;2.13;2.07;;;13.60;99.90;;;;;;5055701;28;20216;-62
2024/03/14 14:10:26;;;;;;;2.13;1.93;;;13.60;99.90;;;;;;5055117;28;20210;-62
2024/03/14 14:12:54;;;;;;;2.57;2.40;;;13.70;99.90;;;;;;5055168;28;20197;-62
2024/03/14 14:15:22;;;;;;;3.13;2.57;;;13.80;99.90;;;;;;5057587;28;20208;-62
2024/03/14 14:17:49;;;;;;;2.87;2.77;;;13.90;99.90;;;;;;5054695;28;20277;-62